createdAt,value
2023-04-18T00:02:38.802Z,9.99
2023-04-18T00:05:42.300Z,10.03
2023-04-18T00:08:44.858Z,10.00
2023-04-18T00:11:47.614Z,9.99
2023-04-18T00:14:52.934Z,10.02
2023-04-18T00:17:57.102Z,9.95
2023-04-18T00:20:59.682Z,9.90
2023-04-18T00:24:02.463Z,9.91
2023-04-18T00:27:04.916Z,9.86
2023-04-18T00:30:09.069Z,9.81
2023-04-18T00:33:13.120Z,9.79
2023-04-18T00:36:15.937Z,9.74
2023-04-18T00:39:18.444Z,9.74
2023-04-18T00:42:22.280Z,9.68
2023-04-18T00:45:24.705Z,9.69
2023-04-18T00:48:27.922Z,9.62
2023-04-18T00:51:30.794Z,9.65
2023-04-18T00:54:33.622Z,9.61
2023-04-18T00:57:36.419Z,9.51
2023-04-18T01:00:39.197Z,9.53
2023-04-18T01:03:41.787Z,9.49
2023-04-18T01:06:45.792Z,9.49
2023-04-18T01:09:48.422Z,9.43
2023-04-18T01:12:51.159Z,9.44
2023-04-18T01:15:55.277Z,9.44
2023-04-18T01:18:58.314Z,9.38
2023-04-18T01:22:00.915Z,9.36
2023-04-18T01:25:08.426Z,9.37
2023-04-18T01:28:12.438Z,9.36
2023-04-18T01:31:15.221Z,9.31
2023-04-18T01:34:20.988Z,9.39
2023-04-18T01:37:23.990Z,9.43
2023-04-18T01:40:26.597Z,9.43
2023-04-18T01:43:29.726Z,9.42
2023-04-18T01:46:32.238Z,9.47
2023-04-18T01:49:37.155Z,9.52
2023-04-18T01:52:39.454Z,9.51
2023-04-18T01:55:42.175Z,9.52
2023-04-18T01:58:44.517Z,9.47
2023-04-18T02:01:48.521Z,9.52
2023-04-18T02:04:51.054Z,9.55
2023-04-18T02:07:54.049Z,9.50
2023-04-18T02:10:56.335Z,9.43
2023-04-18T02:13:59.906Z,9.36
2023-04-18T02:17:02.381Z,9.42
2023-04-18T02:20:05.699Z,9.27
2023-04-18T02:23:10.163Z,9.24
2023-04-18T02:26:12.987Z,9.24
2023-04-18T02:29:15.488Z,9.25
2023-04-18T02:32:18.368Z,9.26
2023-04-18T02:35:21.770Z,9.20
2023-04-18T02:38:24.575Z,9.25
2023-04-18T02:41:27.837Z,9.23
2023-04-18T02:44:30.573Z,9.23
2023-04-18T02:47:37.719Z,9.17
2023-04-18T02:50:52.860Z,9.23
2023-04-18T02:53:55.915Z,9.21
2023-04-18T02:57:01.500Z,9.24
2023-04-18T03:00:17.265Z,9.17
2023-04-18T03:03:38.571Z,9.21
2023-04-18T03:07:01.157Z,9.22
2023-04-18T03:10:07.852Z,9.07
2023-04-18T03:13:12.622Z,9.07
2023-04-18T03:16:16.075Z,9.12
2023-04-18T03:19:19.102Z,9.19
2023-04-18T03:22:21.977Z,9.18
2023-04-18T03:25:31.147Z,9.23
2023-04-18T03:28:34.807Z,9.24
2023-04-18T03:31:37.266Z,9.27
2023-04-18T03:34:40.063Z,9.29
2023-04-18T03:37:44.261Z,9.29
2023-04-18T03:40:52.472Z,9.30
2023-04-18T03:44:01.034Z,9.28
2023-04-18T03:47:04.191Z,9.34
2023-04-18T03:50:09.726Z,9.30
2023-04-18T03:53:12.759Z,9.26
2023-04-18T03:56:15.121Z,9.22
2023-04-18T03:59:30.231Z,9.28
2023-04-18T04:02:32.858Z,9.30
2023-04-18T04:05:36.043Z,9.30
2023-04-18T04:08:38.416Z,9.28
2023-04-18T04:11:41.566Z,9.30
2023-04-18T04:14:46.812Z,9.43
2023-04-18T04:17:51.004Z,9.42
2023-04-18T04:20:54.001Z,9.42
2023-04-18T04:24:13.908Z,9.41
2023-04-18T04:27:20.777Z,9.36
2023-04-18T04:30:23.697Z,9.37
2023-04-18T04:33:28.837Z,9.40
2023-04-18T04:36:35.924Z,9.44
2023-04-18T04:39:41.359Z,9.44
2023-04-18T04:43:16.652Z,9.46
2023-04-18T04:46:23.349Z,9.47
2023-04-18T04:49:26.240Z,9.51
2023-04-18T04:52:28.513Z,9.59
2023-04-18T04:55:32.928Z,9.60
2023-04-18T04:58:36.907Z,9.68
2023-04-18T05:02:01.840Z,9.65
2023-04-18T05:05:23.212Z,9.72
2023-04-18T05:08:26.455Z,9.70
2023-04-18T05:11:28.817Z,9.71
2023-04-18T05:14:31.642Z,9.68
2023-04-18T05:17:33.990Z,9.72
2023-04-18T05:20:36.903Z,9.76
2023-04-18T05:23:40.373Z,9.70
2023-04-18T05:26:43.688Z,9.72
2023-04-18T05:29:47.770Z,9.76
2023-04-18T05:32:50.607Z,9.86
2023-04-18T05:35:53.120Z,9.91
2023-04-18T05:38:55.771Z,9.90
2023-04-18T05:41:58.617Z,9.89
2023-04-18T05:45:01.375Z,9.96
2023-04-18T05:48:04.095Z,9.89
2023-04-18T05:51:06.741Z,9.85
2023-04-18T05:54:09.107Z,9.95
2023-04-18T05:57:12.281Z,9.95
2023-04-18T06:00:15.360Z,9.95
2023-04-18T06:03:18.317Z,9.97
2023-04-18T06:06:21.092Z,10.07
2023-04-18T06:09:24.117Z,10.14
2023-04-18T06:12:26.537Z,10.24
2023-04-18T06:15:29.392Z,10.27
2023-04-18T06:18:31.752Z,10.32
2023-04-18T06:21:34.668Z,10.38
2023-04-18T06:24:37.683Z,10.36
2023-04-18T06:27:40.394Z,10.52
2023-04-18T06:30:42.920Z,10.64
2023-04-18T06:33:45.674Z,10.73
2023-04-18T06:36:48.142Z,10.77
2023-04-18T06:39:50.912Z,10.81
2023-04-18T06:42:53.403Z,10.76
2023-04-18T06:45:56.892Z,10.73
2023-04-18T06:48:59.474Z,10.85
2023-04-18T06:52:02.256Z,10.77
2023-04-18T06:55:04.940Z,10.81
2023-04-18T06:58:08.734Z,10.85
2023-04-18T07:01:11.054Z,10.91
2023-04-18T07:04:14.346Z,11.07
2023-04-18T07:07:17.068Z,11.03
2023-04-18T07:10:19.874Z,11.14
2023-04-18T07:13:22.243Z,11.14
2023-04-18T07:16:25.066Z,11.14
2023-04-18T07:19:27.419Z,11.14
2023-04-18T07:22:30.118Z,11.26
2023-04-18T07:25:32.553Z,11.40
2023-04-18T07:28:35.494Z,11.62
2023-04-18T07:31:37.870Z,12.18
2023-04-18T07:34:40.570Z,12.77
2023-04-18T07:37:42.875Z,12.95
2023-04-18T07:40:46.016Z,12.99
2023-04-18T07:43:48.316Z,13.07
2023-04-18T07:46:52.102Z,13.28
2023-04-18T07:49:54.931Z,13.73
2023-04-18T07:52:57.602Z,14.11
2023-04-18T07:56:00.090Z,14.57
2023-04-18T07:59:02.903Z,14.92
2023-04-18T08:02:05.332Z,14.81
2023-04-18T08:05:09.096Z,14.74
2023-04-18T08:08:12.408Z,14.92
2023-04-18T08:11:15.225Z,14.91
2023-04-18T08:14:17.775Z,15.21
2023-04-18T08:17:20.753Z,15.73
2023-04-18T08:20:23.410Z,16.28
2023-04-18T08:23:26.292Z,16.56
2023-04-18T08:26:28.676Z,16.37
2023-04-18T08:29:33.255Z,16.47
2023-04-18T08:32:36.809Z,16.37
2023-04-18T08:35:39.438Z,16.48
2023-04-18T08:38:41.759Z,16.18
2023-04-18T08:41:46.411Z,16.19
2023-04-18T08:44:48.962Z,16.44
2023-04-18T08:47:52.695Z,16.89
2023-04-18T08:50:59.219Z,17.03
2023-04-18T08:54:04.734Z,16.86
2023-04-18T08:57:09.001Z,16.71
2023-04-18T09:00:12.247Z,16.77
2023-04-18T09:03:15.792Z,16.91
2023-04-18T09:06:20.629Z,16.64
2023-04-18T09:09:27.685Z,16.73
2023-04-18T09:12:30.591Z,16.79
2023-04-18T09:15:32.987Z,16.87
2023-04-18T09:18:35.693Z,17.24
2023-04-18T09:21:44.652Z,16.92
2023-04-18T09:24:57.485Z,16.99
2023-04-18T09:28:02.069Z,17.02
2023-04-18T09:31:12.093Z,17.24
2023-04-18T09:34:25.146Z,16.99
2023-04-18T09:37:29.275Z,17.00
2023-04-18T09:40:32.531Z,16.78
2023-04-18T09:43:35.296Z,16.56
2023-04-18T09:46:37.786Z,16.40
2023-04-18T09:49:40.800Z,16.20
2023-04-18T09:52:44.806Z,16.18
2023-04-18T09:55:53.984Z,16.16
2023-04-18T09:59:06.041Z,16.02
2023-04-18T10:02:16.668Z,15.97
2023-04-18T10:05:21.519Z,16.01
2023-04-18T10:08:24.403Z,16.08
2023-04-18T10:11:27.221Z,16.15
2023-04-18T10:14:30.710Z,16.30
2023-04-18T10:17:56.227Z,16.56
2023-04-18T10:21:04.419Z,16.53
2023-04-18T10:24:07.645Z,16.58
2023-04-18T10:27:10.295Z,16.81
2023-04-18T10:30:12.970Z,17.30
2023-04-18T10:33:33.873Z,17.82
2023-04-18T10:36:36.614Z,18.05
2023-04-18T10:40:05.868Z,18.44
2023-04-18T10:43:08.266Z,18.72
2023-04-18T10:46:20.467Z,18.68
2023-04-18T10:49:34.009Z,18.52
2023-04-18T10:52:36.806Z,18.85
2023-04-18T10:55:42.330Z,18.82
2023-04-18T10:58:51.475Z,18.92
2023-04-18T11:01:58.111Z,18.61
2023-04-18T11:05:07.294Z,18.60
2023-04-18T11:08:23.842Z,18.20
2023-04-18T11:11:26.594Z,18.27
2023-04-18T11:14:42.913Z,18.10
2023-04-18T11:17:45.729Z,18.11
2023-04-18T11:20:50.771Z,18.08
2023-04-18T11:23:55.115Z,17.82
2023-04-18T11:26:58.028Z,17.89
2023-04-18T11:30:01.078Z,17.73
2023-04-18T11:33:11.517Z,17.81
2023-04-18T11:36:14.791Z,17.73
2023-04-18T11:39:17.688Z,17.73
2023-04-18T11:42:20.871Z,17.70
2023-04-18T11:45:23.280Z,17.76
2023-04-18T11:48:46.895Z,17.75
2023-04-18T11:51:49.267Z,17.58
2023-04-18T11:54:52.203Z,17.51
2023-04-18T11:57:59.285Z,17.48
2023-04-18T12:01:22.498Z,17.46
2023-04-18T12:04:24.987Z,17.44
2023-04-18T12:07:42.357Z,17.42
2023-04-18T12:10:50.731Z,17.52
2023-04-18T12:13:56.563Z,17.59
2023-04-18T12:16:58.937Z,17.67
2023-04-18T12:20:05.523Z,17.93
2023-04-18T12:23:08.495Z,18.15
2023-04-18T12:26:18.533Z,18.15
2023-04-18T12:29:21.118Z,18.24
2023-04-18T12:32:23.869Z,18.22
2023-04-18T12:35:26.840Z,18.27
2023-04-18T12:38:29.982Z,18.19
2023-04-18T12:41:32.508Z,18.17
2023-04-18T12:44:35.218Z,18.24
2023-04-18T12:47:39.068Z,18.36
2023-04-18T12:50:41.973Z,18.21
2023-04-18T12:54:09.202Z,18.33
2023-04-18T12:57:11.953Z,18.07
2023-04-18T13:00:15.029Z,18.01
2023-04-18T13:03:18.011Z,18.04
2023-04-18T13:06:20.578Z,17.92
2023-04-18T13:09:23.300Z,17.99
2023-04-18T13:12:25.696Z,17.89
2023-04-18T13:15:28.486Z,18.11
2023-04-18T13:18:31.132Z,18.11
2023-04-18T13:21:33.867Z,18.15
2023-04-18T13:24:37.359Z,17.92
2023-04-18T13:27:42.067Z,17.96
2023-04-18T13:30:44.648Z,18.11
2023-04-18T13:33:47.529Z,18.07
2023-04-18T13:36:50.104Z,18.09
2023-04-18T13:39:53.801Z,18.28
2023-04-18T13:42:56.399Z,18.36
2023-04-18T13:45:59.166Z,18.21
2023-04-18T13:49:01.647Z,18.26
2023-04-18T13:52:04.819Z,18.30
2023-04-18T13:55:07.871Z,18.30
2023-04-18T13:58:10.938Z,18.32
2023-04-18T14:01:14.361Z,18.37
2023-04-18T14:04:17.457Z,18.45
2023-04-18T14:07:19.917Z,18.67
2023-04-18T14:10:22.977Z,18.73
2023-04-18T14:13:25.912Z,18.65
2023-04-18T14:16:32.300Z,18.53
2023-04-18T14:19:35.052Z,18.45
2023-04-18T14:22:37.846Z,18.14
2023-04-18T14:25:40.232Z,18.01
2023-04-18T14:28:42.817Z,17.86
2023-04-18T14:31:45.289Z,17.99
2023-04-18T14:34:48.096Z,18.05
2023-04-18T14:37:50.458Z,18.07
2023-04-18T14:40:53.176Z,18.05
2023-04-18T14:43:55.762Z,17.76
2023-04-18T14:46:58.512Z,17.87
2023-04-18T14:50:00.860Z,17.88
2023-04-18T14:53:04.190Z,17.89
2023-04-18T14:56:07.126Z,18.05
2023-04-18T14:59:10.237Z,17.93
2023-04-18T15:02:12.686Z,17.73
2023-04-18T15:05:15.794Z,17.80
2023-04-18T15:08:18.446Z,17.72
2023-04-18T15:11:21.234Z,17.71
2023-04-18T15:14:23.732Z,17.77
2023-04-18T15:17:26.759Z,17.72
2023-04-18T15:20:29.822Z,17.75
2023-04-18T15:23:32.702Z,17.71
2023-04-18T15:26:35.159Z,17.76
2023-04-18T15:29:38.530Z,17.64
2023-04-18T15:32:42.368Z,17.57
2023-04-18T15:35:45.954Z,17.56
2023-04-18T15:38:48.335Z,17.47
2023-04-18T15:41:54.872Z,17.46
2023-04-18T15:44:57.215Z,17.43
2023-04-18T15:47:59.965Z,17.43
2023-04-18T15:51:03.223Z,17.42
2023-04-18T15:54:06.807Z,17.39
2023-04-18T15:57:10.345Z,17.34
2023-04-18T16:00:16.433Z,17.37
2023-04-18T16:03:19.372Z,17.36
2023-04-18T16:06:23.722Z,17.33
2023-04-18T16:09:26.710Z,17.33
2023-04-18T16:12:29.886Z,17.36
2023-04-18T16:15:32.538Z,17.35
2023-04-18T16:18:35.305Z,17.31
2023-04-18T16:21:37.677Z,17.22
2023-04-18T16:24:42.177Z,17.19
2023-04-18T16:27:45.066Z,17.20
2023-04-18T16:30:48.210Z,17.16
2023-04-18T16:33:53.124Z,17.09
2023-04-18T16:36:56.373Z,16.86
2023-04-18T16:40:00.353Z,16.77
2023-04-18T16:43:05.972Z,16.58
2023-04-18T16:46:09.026Z,16.45
2023-04-18T16:49:12.220Z,16.42
2023-04-18T16:52:15.684Z,16.42
2023-04-18T16:55:19.282Z,16.44
2023-04-18T16:58:23.527Z,16.38
2023-04-18T17:01:26.394Z,16.33
2023-04-18T17:04:29.881Z,16.39
2023-04-18T17:07:33.971Z,16.24
2023-04-18T17:10:36.649Z,16.28
2023-04-18T17:13:40.503Z,16.23
2023-04-18T17:16:43.943Z,16.11
2023-04-18T17:19:47.974Z,16.04
2023-04-18T17:22:52.122Z,15.93
2023-04-18T17:25:55.327Z,15.72
2023-04-18T17:28:58.213Z,15.58
2023-04-18T17:32:01.682Z,15.52
2023-04-18T17:35:06.714Z,15.50
2023-04-18T17:38:11.680Z,15.46
2023-04-18T17:41:19.085Z,15.44
2023-04-18T17:44:23.083Z,15.33
2023-04-18T17:47:25.992Z,15.31
2023-04-18T17:50:31.022Z,15.27
2023-04-18T17:53:33.907Z,15.24
2023-04-18T17:56:37.820Z,15.19
2023-04-18T17:59:41.636Z,15.18
2023-04-18T18:02:45.137Z,15.12
2023-04-18T18:05:50.537Z,15.11
2023-04-18T18:08:54.571Z,15.08
2023-04-18T18:11:59.451Z,15.07
2023-04-18T18:15:03.695Z,14.92
2023-04-18T18:18:07.561Z,14.93
2023-04-18T18:21:12.009Z,14.89
2023-04-18T18:24:15.745Z,14.81
2023-04-18T18:27:23.465Z,14.78
2023-04-18T18:30:28.679Z,14.72
2023-04-18T18:33:32.423Z,14.64
2023-04-18T18:36:37.882Z,14.56
2023-04-18T18:39:44.945Z,14.45
2023-04-18T18:42:52.261Z,14.41
2023-04-18T18:46:03.964Z,14.34
2023-04-18T18:49:09.701Z,14.24
2023-04-18T18:52:14.498Z,14.16
2023-04-18T18:55:18.523Z,14.11
2023-04-18T18:58:30.583Z,14.11
2023-04-18T19:01:36.603Z,14.02
2023-04-18T19:04:41.758Z,13.95
2023-04-18T19:07:45.900Z,13.91
2023-04-18T19:10:51.075Z,13.81
2023-04-18T19:13:54.775Z,13.66
2023-04-18T19:16:59.326Z,13.54
2023-04-18T19:20:03.422Z,13.39
2023-04-18T19:23:10.069Z,13.35
2023-04-18T19:26:14.711Z,13.26
2023-04-18T19:29:18.914Z,13.19
2023-04-18T19:32:23.352Z,13.09
2023-04-18T19:35:28.859Z,13.08
2023-04-18T19:38:33.376Z,13.08
2023-04-18T19:41:41.418Z,12.93
2023-04-18T19:44:45.825Z,12.82
2023-04-18T19:47:51.511Z,12.74
2023-04-18T19:50:58.279Z,12.74
2023-04-18T19:54:02.441Z,12.67
2023-04-18T19:57:07.750Z,12.67
2023-04-18T20:00:13.496Z,12.66
2023-04-18T20:03:20.376Z,12.55
2023-04-18T20:06:27.466Z,12.56
2023-04-18T20:09:31.444Z,12.50
2023-04-18T20:12:36.054Z,12.44
2023-04-18T20:15:40.543Z,12.47
2023-04-18T20:23:12.601Z,12.38
2023-04-18T20:26:24.373Z,12.40
2023-04-18T20:29:29.665Z,12.43
2023-04-18T20:32:34.276Z,12.40
2023-04-18T20:35:41.631Z,12.32
2023-04-18T20:38:45.308Z,12.14
2023-04-18T20:41:55.038Z,12.27
2023-04-18T20:44:59.459Z,12.26
2023-04-18T20:48:08.266Z,12.16
2023-04-18T20:51:11.097Z,12.10
2023-04-18T20:54:16.242Z,12.08
2023-04-18T20:57:21.537Z,12.13
2023-04-18T21:00:24.840Z,12.12
2023-04-18T21:03:27.658Z,12.09
2023-04-18T21:06:31.194Z,12.11
2023-04-18T21:09:36.844Z,12.04
2023-04-18T21:12:39.581Z,12.01
2023-04-18T21:15:45.111Z,12.05
2023-04-18T21:18:47.836Z,11.88
2023-04-18T21:21:50.988Z,11.83
2023-04-18T21:24:53.756Z,11.72
2023-04-18T21:27:56.397Z,11.76
2023-04-18T21:30:59.157Z,11.73
2023-04-18T21:34:05.672Z,11.63
2023-04-18T21:37:08.381Z,11.65
2023-04-18T21:40:11.117Z,11.62
2023-04-18T21:43:13.910Z,11.65
2023-04-18T21:46:16.830Z,11.70
2023-04-18T21:49:19.627Z,11.63
2023-04-18T21:52:22.016Z,11.57
2023-04-18T21:55:24.819Z,11.57
2023-04-18T21:58:28.031Z,11.59
2023-04-18T22:01:30.890Z,11.46
2023-04-18T22:04:34.070Z,11.43
2023-04-18T22:07:46.593Z,11.38
2023-04-18T22:11:00.488Z,11.26
2023-04-18T22:14:03.322Z,11.29
2023-04-18T22:17:05.757Z,11.23
2023-04-18T22:20:09.013Z,11.22
2023-04-18T22:23:11.827Z,11.20
2023-04-18T22:26:14.564Z,11.15
2023-04-18T22:29:17.008Z,11.25
2023-04-18T22:32:19.811Z,11.33
2023-04-18T22:35:22.498Z,11.32
2023-04-18T22:38:25.509Z,11.21
2023-04-18T22:41:27.963Z,11.04
2023-04-18T22:44:30.746Z,10.99
2023-04-18T22:47:33.673Z,10.99
2023-04-18T22:50:38.032Z,10.93
2023-04-18T22:53:40.623Z,10.79
2023-04-18T22:56:43.307Z,10.79
2023-04-18T22:59:46.100Z,10.75
2023-04-18T23:02:48.936Z,10.72
2023-04-18T23:05:51.475Z,10.73
2023-04-18T23:08:54.438Z,10.62
2023-04-18T23:11:56.873Z,10.50
2023-04-18T23:14:59.650Z,10.47
2023-04-18T23:18:02.169Z,10.42
2023-04-18T23:21:05.106Z,10.46
2023-04-18T23:24:07.876Z,10.39
2023-04-18T23:27:10.944Z,10.27
2023-04-18T23:30:13.515Z,10.18
2023-04-18T23:33:19.305Z,10.23
2023-04-18T23:36:21.704Z,10.20
2023-04-18T23:39:26.342Z,10.08
2023-04-18T23:42:28.697Z,10.09
2023-04-18T23:45:31.520Z,10.12
2023-04-18T23:48:33.948Z,10.00
2023-04-18T23:51:37.812Z,9.93
2023-04-18T23:54:40.211Z,9.94
2023-04-18T23:57:43.236Z,9.90
